Time;durP1;ratioP1;P1;durP2;ratioP2;P2;SDS_P1;SDS_P2;PMS_P1;PMS_P2;Temp;Humidity;BMP_temperature;BMP_pressure;BME280_temperature;BME280_humidity;BME280_pressure;Samples;Min_cycle;Max_cycle;Signal;HPM_P1;HPM_P2
2022/11/18 00:02:04;;;;;;;2.00;1.80;;;;;;;-1.18;79.93;101940.13;4844653;29;20493;-74
2022/11/18 00:04:29;;;;;;;2.63;2.03;;;;;;;-1.20;79.61;101941.94;4843848;29;20178;-74
2022/11/18 00:06:55;;;;;;;4.53;2.00;;;;;;;-1.15;79.92;101934.81;4843673;29;20030;-74
2022/11/18 00:09:20;;;;;;;1.80;1.70;;;;;;;-1.32;79.31;101937.19;4825632;29;20026;-74
2022/11/18 00:14:30;;;;;;;2.50;2.30;;;;;;;-1.34;80.03;101944.25;4843563;29;20044;-73
2022/11/18 00:16:59;;;;;;;1.87;1.77;;;;;;;-1.35;80.00;101947.75;4843354;29;20263;-73
2022/11/18 00:19:31;;;;;;;2.77;2.20;;;;;;;-1.34;80.33;101947.69;4843532;29;20025;-75
2022/11/18 00:22:00;;;;;;;2.23;2.03;;;;;;;-1.48;80.09;101920.38;4843952;29;20352;-75
2022/11/18 00:24:26;;;;;;;;;;;;;;;-1.31;80.37;101944.13;4843950;29;20323;-74
2022/11/18 00:26:53;;;;;;;3.07;2.17;;;;;;;-1.45;80.13;101941.16;4827267;29;19920;-75
2022/11/18 00:29:19;;;;;;;2.50;1.93;;;;;;;-1.68;80.04;101921.97;4843381;29;20041;-74
2022/11/18 00:31:45;;;;;;;2.53;2.20;;;;;;;-1.51;80.30;101946.63;4843712;29;20394;-74
2022/11/18 00:34:13;;;;;;;2.20;2.00;;;;;;;-1.43;80.73;101945.44;4843919;29;20683;-75
2022/11/18 00:36:39;;;;;;;2.30;1.80;;;;;;;-1.45;79.99;101946.38;4843915;29;20037;-74
2022/11/18 00:39:05;;;;;;;2.30;2.10;;;;;;;-1.57;80.35;101938.09;4844137;29;20263;-74
2022/11/18 00:44:15;;;;;;;2.13;1.93;;;;;;;-1.69;80.14;101946.41;4826579;29;20030;-75
2022/11/18 00:46:41;;;;;;;2.67;2.00;;;;;;;-1.73;80.23;101946.56;4843091;29;20315;-73
2022/11/18 00:49:07;;;;;;;2.27;2.00;;;;;;;-2.05;80.39;101904.16;4843138;29;20034;-73
2022/11/18 00:51:33;;;;;;;2.90;2.13;;;;;;;-1.87;80.71;101947.03;4843483;29;20274;-73
2022/11/18 00:53:58;;;;;;;4.23;2.10;;;;;;;-1.92;81.26;101938.53;4827037;29;20271;-74
2022/11/18 00:56:24;;;;;;;2.53;2.07;;;;;;;-1.90;80.85;101945.38;4842857;29;20459;-74
2022/11/18 00:58:49;;;;;;;1.97;1.87;;;;;;;-1.95;80.93;101951.69;4842822;29;20037;-73
2022/11/18 01:01:15;;;;;;;2.07;1.90;;;;;;;-2.04;81.35;101958.06;4843344;29;20071;-74
2022/11/18 01:03:40;;;;;;;3.90;2.63;;;;;;;-2.15;81.70;101943.69;4842612;29;20505;-73
2022/11/18 01:06:06;;;;;;;1.90;1.80;;;;;;;-2.22;82.46;101941.28;4842731;29;20036;-74
2022/11/18 01:08:31;;;;;;;2.33;2.13;;;;;;;-2.26;82.95;101949.28;4842743;29;20041;-74
2022/11/18 01:13:18;;;;;;;2.30;2.10;;;;;;;-2.34;83.28;101939.06;4842686;29;20053;-74
2022/11/18 01:13:44;;;;;;;3.53;2.10;;;;;;;-2.41;83.42;101937.59;4845852;29;20085;-73
2022/11/18 01:16:09;;;;;;;2.80;2.60;;;;;;;-2.39;83.76;101941.00;4848395;29;20037;-74
2022/11/18 01:18:35;;;;;;;2.63;2.43;;;;;;;-2.45;83.30;101938.59;4845161;29;20034;-75
2022/11/18 01:21:02;;;;;;;2.90;2.30;;;;;;;-2.49;83.45;101939.59;4845168;29;20037;-73
2022/11/18 01:23:28;;;;;;;2.40;1.90;;;;;;;-2.53;84.06;101943.22;4844864;29;20327;-75
2022/11/18 01:25:54;;;;;;;2.40;2.20;;;;;;;-2.53;84.30;101943.22;4842797;29;20267;-74
2022/11/18 01:28:20;;;;;;;2.67;2.43;;;;;;;-2.53;83.96;101943.22;4843032;29;20129;-74
2022/11/18 01:30:46;;;;;;;2.20;1.93;;;;;;;-2.53;83.67;101938.84;4843552;29;20329;-75
2022/11/18 01:33:12;;;;;;;2.00;1.90;;;;;;;-2.46;83.55;101943.88;4843943;29;20034;-74
2022/11/18 01:35:40;;;;;;;3.80;2.77;;;;;;;-2.30;83.67;101943.31;4843161;29;20539;-74
2022/11/18 01:38:07;;;;;;;2.35;2.00;;;;;;;-2.14;83.11;101945.38;4838335;29;20550;-73
2022/11/18 01:40:34;;;;;;;2.57;2.30;;;;;;;-2.10;81.34;101933.94;4825821;29;20424;-74
2022/11/18 01:43:00;;;;;;;2.57;2.30;;;;;;;-1.94;81.82;101943.78;4830830;29;20336;-74
2022/11/18 01:45:34;;;;;;;3.80;2.13;;;;;;;-1.83;81.31;101946.03;4840877;29;20276;-73
2022/11/18 01:48:24;;;;;;;3.50;3.20;;;;;;;-1.84;80.28;101930.41;4845117;29;20275;-73
2022/11/18 01:51:00;;;;;;;2.67;2.10;;;;;;;-1.67;80.10;101952.41;4843870;29;20296;-73
2022/11/18 01:53:32;;;;;;;2.43;2.23;;;;;;;-1.62;79.15;101934.81;4824702;29;20252;-73
2022/11/18 01:56:01;;;;;;;2.63;2.43;;;;;;;-1.65;78.44;101939.28;4831986;29;20272;-74
2022/11/18 01:58:29;;;;;;;;;;;;;;;-1.63;78.22;101938.31;4825448;29;20271;-75
2022/11/18 02:00:55;;;;;;;2.05;1.85;;;;;;;-1.75;78.18;101938.75;4825405;29;19913;-74
2022/11/18 02:03:21;;;;;;;4.57;2.30;;;;;;;-1.78;78.78;101938.00;4825786;29;20034;-74
2022/11/18 02:05:49;;;;;;;2.40;2.20;;;;;;;-1.70;79.94;101938.63;4826356;29;20475;-74
2022/11/18 02:08:17;;;;;;;6.68;2.45;;;;;;;-1.65;78.95;101934.94;4829943;29;20037;-73
2022/11/18 02:10:42;;;;;;;2.67;2.30;;;;;;;-1.69;78.83;101937.72;4835286;29;20440;-73
2022/11/18 02:13:08;;;;;;;2.53;2.20;;;;;;;-1.73;79.01;101936.97;4831520;29;20125;-73
2022/11/18 02:16:16;;;;;;;2.53;2.30;;;;;;;-1.62;78.21;101953.09;4817797;29;20038;-73
2022/11/18 02:19:07;;;;;;;3.13;2.83;;;;;;;-1.62;79.02;101955.72;4831503;29;20260;-72
2022/11/18 02:21:51;;;;;;;2.20;2.00;;;;;;;-1.60;79.04;101942.59;4828625;29;20287;-74
2022/11/18 02:24:35;;;;;;;2.53;2.33;;;;;;;-1.65;78.89;101953.22;4824755;29;20259;-75
2022/11/18 02:27:28;;;;;;;3.00;2.40;;;;;;;-1.65;79.33;101955.81;4825301;29;20356;-74
2022/11/18 02:30:07;;;;;;;2.97;2.47;;;;;;;-1.64;79.24;101947.06;4826537;29;20362;-73
2022/11/18 02:32:44;;;;;;;2.65;2.25;;;;;;;-1.65;79.58;101944.53;4824632;29;20267;-74
2022/11/18 02:35:17;;;;;;;3.20;2.67;;;;;;;-1.73;79.34;101952.63;4827241;29;20084;-74
2022/11/18 02:37:51;;;;;;;2.50;2.30;;;;;;;-2.08;79.19;101887.75;4827088;29;20392;-74
2022/11/18 02:40:32;;;;;;;3.30;3.00;;;;;;;-1.74;79.12;101945.69;4827281;29;20267;-73
2022/11/18 02:43:04;;;;;;;2.80;2.38;;;;;;;-1.77;79.43;101927.50;4827478;29;20622;-75
2022/11/18 02:45:31;;;;;;;3.47;3.10;;;;;;;-1.64;79.79;101930.56;4827292;29;20034;-74
2022/11/18 02:48:01;;;;;;;3.63;2.83;;;;;;;-1.69;79.15;101930.72;4827673;29;20359;-74
2022/11/18 02:50:29;;;;;;;2.80;2.50;;;;;;;-1.73;78.78;101930.91;4812236;29;20268;-73
2022/11/18 02:52:58;;;;;;;2.87;2.63;;;;;;;-1.83;79.41;101927.75;4829780;29;20408;-74
2022/11/18 02:55:29;;;;;;;2.20;2.00;;;;;;;-1.87;79.82;101933.97;4828372;29;20764;-74
2022/11/18 02:57:56;;;;;;;3.13;2.20;;;;;;;-1.93;79.62;101914.19;4827361;29;20079;-74
2022/11/18 03:00:21;;;;;;;2.75;2.53;;;;;;;-1.92;79.18;101926.31;4827661;29;20038;-74
2022/11/18 03:02:48;;;;;;;3.77;2.63;;;;;;;-1.93;79.80;101923.75;4827487;29;20035;-74
2022/11/18 03:05:39;;;;;;;3.08;2.53;;;;;;;-1.90;79.67;101931.47;4828026;29;20471;-73
2022/11/18 03:08:11;;;;;;;3.05;2.63;;;;;;;-2.02;80.04;101930.16;4827635;29;20034;-75
2022/11/18 03:10:48;;;;;;;4.03;2.90;;;;;;;-2.10;80.96;101911.28;4828155;29;20046;-73
2022/11/18 03:13:23;;;;;;;2.63;2.33;;;;;;;-1.89;80.99;101925.34;4827594;29;20035;-75
2022/11/18 03:16:04;;;;;;;2.57;2.30;;;;;;;-1.82;79.50;101926.84;4827201;29;20056;-75
2022/11/18 03:18:48;;;;;;;4.10;3.10;;;;;;;-2.08;80.07;101904.25;4827038;29;20303;-73
2022/11/18 03:21:23;;;;;;;3.60;2.67;;;;;;;-2.27;79.90;101872.75;4826760;29;20124;-74
2022/11/18 03:24:02;;;;;;;5.65;2.83;;;;;;;-1.92;80.51;101930.69;4827481;29;20026;-74
2022/11/18 03:26:32;;;;;;;3.75;3.00;;;;;;;-2.05;81.39;101908.50;4826774;29;20125;-74
2022/11/18 03:29:12;;;;;;;3.87;2.53;;;;;;;-1.93;80.58;101934.22;4826087;29;20483;-74
2022/11/18 03:31:49;;;;;;;3.20;2.90;;;;;;;-1.91;81.21;101917.56;4825660;29;20661;-75
2022/11/18 03:34:14;;;;;;;5.33;3.50;;;;;;;-1.82;81.31;101925.97;4825964;29;20275;-74
2022/11/18 03:36:47;;;;;;;9.03;5.57;;;;;;;-1.84;80.98;101912.13;4825861;29;20271;-74
2022/11/18 03:39:16;;;;;;;4.53;2.73;;;;;;;-1.77;81.73;101914.47;4826708;29;20348;-75
2022/11/18 03:41:52;;;;;;;3.05;2.75;;;;;;;-1.75;81.30;101914.41;4826059;29;20284;-74
2022/11/18 03:44:27;;;;;;;3.87;3.20;;;;;;;-1.78;81.47;101902.31;4825537;29;20038;-74
2022/11/18 03:47:01;;;;;;;3.30;3.00;;;;;;;-1.81;81.22;101891.13;4825632;29;20714;-75
2022/11/18 03:49:34;;;;;;;4.23;3.37;;;;;;;-1.75;81.19;101910.03;4826206;29;20063;-75
2022/11/18 03:52:09;;;;;;;3.23;2.90;;;;;;;-1.69;80.84;101907.22;4825868;29;20282;-75
2022/11/18 03:54:39;;;;;;;3.30;3.00;;;;;;;-1.72;80.85;101894.28;4825753;29;20268;-75
2022/11/18 03:57:11;;;;;;;3.70;3.30;;;;;;;-1.65;80.45;101898.34;4826398;29;20811;-73
2022/11/18 03:59:44;;;;;;;3.20;2.55;;;;;;;-1.62;80.44;101898.25;4825688;29;20264;-75
2022/11/18 04:02:24;;;;;;;4.00;2.37;;;;;;;-1.55;80.11;101898.84;4825250;29;20038;-73
2022/11/18 04:04:51;;;;;;;3.40;2.87;;;;;;;-1.55;79.90;101896.25;4825177;29;20268;-74
2022/11/18 04:07:31;;;;;;;8.70;2.70;;;;;;;-1.58;79.88;101902.44;4825765;29;20264;-74
2022/11/18 04:10:18;;;;;;;2.63;2.27;;;;;;;-1.48;79.33;101904.69;4826134;29;20284;-73
2022/11/18 04:12:56;;;;;;;4.43;2.97;;;;;;;-1.50;78.78;101902.13;4825863;29;20276;-73
2022/11/18 04:15:24;;;;;;;5.77;3.00;;;;;;;-1.64;79.36;101899.22;4809671;29;20086;-74
2022/11/18 04:17:52;;;;;;;5.30;2.50;;;;;;;-1.63;79.75;101896.53;4827428;29;20270;-74
2022/11/18 04:20:20;;;;;;;3.58;2.63;;;;;;;-1.73;79.36;101886.50;4810038;29;20284;-73
2022/11/18 04:22:46;;;;;;;6.45;2.70;;;;;;;-1.72;79.60;101891.66;4825623;29;20103;-73
2022/11/18 04:25:12;;;;;;;3.83;2.40;;;;;;;-1.70;79.80;101896.81;4825260;29;20480;-77
2022/11/18 04:27:38;;;;;;;4.60;2.70;;;;;;;-1.76;80.10;101889.19;4826648;29;20030;-76
2022/11/18 04:30:05;;;;;;;3.10;2.53;;;;;;;-1.77;79.32;101892.72;4825578;29;20623;-78
2022/11/18 04:32:31;;;;;;;3.08;2.65;;;;;;;-1.99;79.30;101854.34;4825652;29;20416;-73
2022/11/18 04:34:56;;;;;;;3.60;2.77;;;;;;;-1.83;79.77;101883.34;4825468;29;20034;-73
2022/11/18 04:37:29;;;;;;;5.85;3.03;;;;;;;-1.81;80.63;101891.13;4825605;29;20178;-72
2022/11/18 04:39:54;;;;;;;2.83;2.63;;;;;;;-1.97;80.48;101860.38;4825852;29;20034;-73
2022/11/18 04:42:20;;;;;;;4.17;3.43;;;;;;;-1.83;80.66;101885.97;4825619;29;20034;-74
2022/11/18 04:44:45;;;;;;;2.97;2.53;;;;;;;-1.88;81.11;101887.91;4825226;29;20030;-72
2022/11/18 04:47:11;;;;;;;4.27;2.80;;;;;;;-1.84;81.72;101886.88;4829265;29;20026;-71
2022/11/18 04:52:22;;;;;;;5.28;2.60;;;;;;;-2.12;80.91;101854.84;4821444;29;20034;-74
2022/11/18 04:55:26;;;;;;;3.03;2.75;;;;;;;-2.04;80.83;101879.75;4796019;29;20041;-72
2022/11/18 04:57:51;;;;;;;2.92;2.63;;;;;;;-2.14;81.47;101870.56;4808839;29;20034;-72
2022/11/18 05:00:17;;;;;;;3.33;3.03;;;;;;;-1.99;82.04;101879.59;4824941;29;20030;-71
2022/11/18 05:02:42;;;;;;;3.30;2.70;;;;;;;-2.01;82.01;101877.06;4793463;29;20388;-73
2022/11/18 05:05:08;;;;;;;4.00;3.13;;;;;;;-2.09;82.47;101868.63;4825237;29;20114;-73
2022/11/18 05:07:33;;;;;;;3.07;2.77;;;;;;;-2.02;82.94;101866.66;4824724;29;20081;-71
2022/11/18 05:09:59;;;;;;;5.40;2.67;;;;;;;-2.11;82.68;101852.16;4825193;29;20051;-72
2022/11/18 05:15:11;;;;;;;3.00;2.70;;;;;;;-1.97;83.38;101881.25;4825093;29;20034;-71
2022/11/18 05:17:37;;;;;;;3.13;2.73;;;;;;;-2.00;82.76;101890.97;4824248;29;20479;-69
2022/11/18 05:20:03;;;;;;;4.33;2.67;;;;;;;-2.09;83.59;101886.03;4823935;29;20030;-71
2022/11/18 05:22:32;;;;;;;5.00;2.60;;;;;;;-2.13;82.90;101864.41;4824509;29;20038;-74
2022/11/18 05:25:00;;;;;;;3.20;2.22;;;;;;;-2.08;83.58;101866.88;4824624;29;20038;-72
2022/11/18 05:27:26;;;;;;;3.10;2.85;;;;;;;-2.11;84.17;101869.59;4824658;29;20530;-71
2022/11/18 05:29:51;;;;;;;2.93;2.73;;;;;;;-2.10;84.07;101869.53;4824383;29;20061;-76
2022/11/18 05:32:17;;;;;;;4.20;2.40;;;;;;;-2.02;83.87;101867.53;4825322;29;20037;-74
2022/11/18 05:34:43;;;;;;;3.25;2.70;;;;;;;-1.97;84.46;101870.81;4824921;29;20375;-74
2022/11/18 05:37:09;;;;;;;4.50;2.47;;;;;;;-2.12;84.50;101844.41;4824131;29;20030;-72
2022/11/18 05:39:36;;;;;;;2.80;2.60;;;;;;;-1.90;83.84;101881.88;4823998;29;20429;-70
2022/11/18 05:44:46;;;;;;;2.60;2.30;;;;;;;-1.93;83.57;101872.41;4823616;29;20463;-68
2022/11/18 05:47:14;;;;;;;4.30;3.77;;;;;;;-1.91;83.88;101880.19;4823279;29;20041;-71
2022/11/18 05:49:42;;;;;;;2.17;1.98;;;;;;;-1.97;84.58;101880.41;4823750;29;20431;-76
2022/11/18 05:52:10;;;;;;;2.38;2.17;;;;;;;-1.95;84.06;101879.44;4824075;29;20103;-72
2022/11/18 05:54:48;;;;;;;3.15;2.30;;;;;;;-1.98;83.90;101889.16;4823657;29;20421;-76
2022/11/18 05:57:17;;;;;;;2.55;2.30;;;;;;;-2.06;84.89;101901.59;4823639;29;20038;-75
2022/11/18 05:59:42;;;;;;;2.88;2.58;;;;;;;-2.08;84.83;101904.25;4823347;29;20034;-73
2022/11/18 06:02:15;;;;;;;3.30;3.00;;;;;;;-2.05;84.88;101890.25;4824760;29;20038;-76
2022/11/18 06:04:58;;;;;;;8.55;5.07;;;;;;;-2.08;84.94;101892.97;4824672;29;20050;-77
2022/11/18 06:07:37;;;;;;;2.97;2.53;;;;;;;-2.06;83.81;101896.38;4823462;29;20037;-71
2022/11/18 06:10:05;;;;;;;2.30;2.10;;;;;;;-2.05;83.50;101892.84;4823148;29;20050;-70
2022/11/18 06:12:36;;;;;;;2.65;2.38;;;;;;;-2.03;83.85;101893.66;4823397;29;20460;-68
2022/11/18 06:15:20;;;;;;;3.83;2.22;;;;;;;-1.93;84.08;101884.59;4823136;29;20046;-70
2022/11/18 06:17:52;;;;;;;3.70;2.85;;;;;;;-1.95;84.28;101894.25;4823364;29;20037;-67
2022/11/18 06:20:19;;;;;;;3.78;2.58;;;;;;;-1.95;84.24;101904.69;4823028;29;20468;-69
2022/11/18 06:22:47;;;;;;;2.80;2.60;;;;;;;-2.03;84.09;101901.47;4823032;29;20356;-69
2022/11/18 06:25:13;;;;;;;6.10;2.53;;;;;;;-2.01;84.76;101904.91;4824076;29;20034;-70
2022/11/18 06:27:40;;;;;;;2.60;2.20;;;;;;;-2.04;84.52;101894.56;4823460;29;20033;-74
2022/11/18 06:30:06;;;;;;;4.05;2.63;;;;;;;-1.98;84.66;101889.16;4823653;29;20475;-73
2022/11/18 06:32:32;;;;;;;2.90;2.70;;;;;;;-2.02;85.48;101892.78;4823584;29;20353;-71
2022/11/18 06:34:57;;;;;;;4.43;3.03;;;;;;;-1.99;84.18;101882.22;4823314;29;20036;-71
2022/11/18 06:37:23;;;;;;;4.33;2.93;;;;;;;-1.96;84.69;101897.78;4823309;29;20057;-71
2022/11/18 06:39:49;;;;;;;3.25;2.60;;;;;;;-2.08;84.57;101883.38;4823286;29;20129;-69
2022/11/18 06:43:37;;;;;;;4.67;2.70;;;;;;;-2.05;84.60;101878.03;4823347;29;20130;-72
2022/11/18 06:45:01;;;;;;;3.55;2.83;;;;;;;-2.03;84.65;101885.81;4822842;29;20034;-74
2022/11/18 06:47:29;;;;;;;5.18;3.25;;;;;;;-2.08;85.20;101870.31;4822823;29;20091;-71
2022/11/18 06:49:54;;;;;;;8.73;2.97;;;;;;;-2.02;84.68;101882.34;4823307;29;20031;-73
2022/11/18 06:52:22;;;;;;;5.03;3.07;;;;;;;-2.02;84.78;101864.06;4823792;29;20498;-75
2022/11/18 06:54:47;;;;;;;3.47;2.90;;;;;;;-1.96;84.84;101871.66;4806982;29;20067;-74
2022/11/18 06:57:13;;;;;;;6.00;3.40;;;;;;;-1.90;84.74;101877.50;4823367;29;20252;-70
2022/11/18 06:59:38;;;;;;;5.33;3.13;;;;;;;-1.93;84.87;101882.00;4823097;29;20026;-70
2022/11/18 07:02:04;;;;;;;4.00;2.70;;;;;;;-2.05;84.05;101862.38;4823075;29;20031;-72
2022/11/18 07:04:30;;;;;;;3.40;3.10;;;;;;;-2.12;83.93;101860.06;4824512;29;20035;-70
2022/11/18 07:06:56;;;;;;;10.07;3.22;;;;;;;-1.98;84.25;101889.16;4826783;29;20035;-67
2022/11/18 07:09:23;;;;;;;3.47;2.97;;;;;;;-1.96;84.43;101893.41;4826420;29;20037;-69
2022/11/18 07:11:51;;;;;;;5.63;2.55;;;;;;;-2.02;84.29;101883.19;4823127;29;20057;-71
2022/11/18 07:14:16;;;;;;;2.70;2.50;;;;;;;-2.05;83.95;101888.47;4791612;29;20061;-67
2022/11/18 07:16:42;;;;;;;7.83;2.87;;;;;;;-2.20;84.88;101882.06;4822973;29;20468;-71
2022/11/18 07:19:10;;;;;;;3.87;3.30;;;;;;;-2.06;84.74;101885.94;4823937;29;20030;-70
2022/11/18 07:21:37;;;;;;;4.13;3.00;;;;;;;-1.99;85.34;101897.88;4825931;29;20471;-69
2022/11/18 07:24:06;;;;;;;8.75;3.22;;;;;;;-1.93;84.32;101887.22;4826008;29;20054;-68
2022/11/18 07:26:31;;;;;;;;;;;;;;;-1.91;84.38;101893.22;4826527;29;20421;-71
2022/11/18 07:28:57;;;;;;;3.30;2.73;;;;;;;-1.92;83.63;101904.56;4826396;29;19912;-70
2022/11/18 07:31:22;;;;;;;4.50;2.90;;;;;;;-1.98;84.58;101905.66;4826053;29;20034;-76
2022/11/18 07:33:48;;;;;;;4.80;3.10;;;;;;;-1.96;84.15;101908.22;4826176;29;20026;-72
2022/11/18 07:36:17;;;;;;;7.65;3.53;;;;;;;-1.94;84.35;101911.63;4826006;29;20030;-75
2022/11/18 07:38:42;;;;;;;11.35;3.38;;;;;;;-1.93;84.69;101902.88;4825847;29;20034;-72
2022/11/18 07:41:11;;;;;;;7.63;4.75;;;;;;;-1.85;84.03;101906.06;4809386;29;20444;-71
2022/11/18 07:43:38;;;;;;;3.25;2.70;;;;;;;-1.92;83.83;101902.81;4809521;29;20030;-72
2022/11/18 07:46:24;;;;;;;6.05;2.75;;;;;;;-1.84;83.75;101915.59;4825481;29;20086;-69
2022/11/18 07:48:52;;;;;;;4.03;2.83;;;;;;;-1.75;82.78;101899.59;4825827;29;20038;-71
2022/11/18 07:51:20;;;;;;;3.15;2.85;;;;;;;-1.83;82.75;101913.84;4825868;29;20038;-72
2022/11/18 07:53:46;;;;;;;4.55;2.70;;;;;;;-1.90;82.33;101915.81;4827787;29;20039;-70
2022/11/18 07:56:12;;;;;;;4.03;2.80;;;;;;;-1.96;82.85;101923.88;4827141;29;20053;-70
2022/11/18 07:58:39;;;;;;;3.60;2.33;;;;;;;-1.96;82.42;101913.44;4829922;29;20022;-73
2022/11/18 08:01:21;;;;;;;2.70;2.30;;;;;;;-1.93;82.54;101923.75;4827693;29;20376;-75
2022/11/18 08:03:47;;;;;;;5.32;2.38;;;;;;;-1.91;83.53;101916.72;4826505;29;20030;-74
2022/11/18 08:06:15;;;;;;;6.05;2.30;;;;;;;-1.87;82.49;101910.47;4825220;29;20065;-71
2022/11/18 08:08:42;;;;;;;4.75;2.70;;;;;;;-1.90;82.73;101902.75;4824957;29;20042;-67
2022/11/18 08:11:12;;;;;;;7.70;2.42;;;;;;;-1.78;83.06;101906.69;4825029;29;20388;-71
2022/11/18 08:13:39;;;;;;;3.70;2.45;;;;;;;-1.72;82.76;101904.72;4825368;29;20034;-66
2022/11/18 08:16:12;;;;;;;5.88;3.10;;;;;;;-1.65;82.53;101908.81;4824677;29;20049;-68
2022/11/18 08:18:37;;;;;;;3.17;2.97;;;;;;;-1.76;81.67;101900.50;4823903;29;20036;-68
2022/11/18 08:21:03;;;;;;;9.70;2.93;;;;;;;-1.77;82.66;101904.00;4824022;29;20026;-70
2022/11/18 08:23:30;;;;;;;5.68;3.05;;;;;;;-1.89;82.67;101894.88;4824789;29;20069;-68
2022/11/18 08:26:16;;;;;;;4.18;2.15;;;;;;;-1.80;82.64;101898.91;4824969;29;20170;-67
2022/11/18 08:28:43;;;;;;;3.47;2.80;;;;;;;-1.81;83.29;101885.91;4824292;29;20376;-67
2022/11/18 08:31:13;;;;;;;6.75;2.42;;;;;;;-1.79;82.92;101890.16;4823191;29;20268;-65
2022/11/18 08:33:39;;;;;;;4.23;3.17;;;;;;;-1.69;83.10;101906.38;4807625;29;20391;-67
2022/11/18 08:36:11;;;;;;;3.23;2.73;;;;;;;-1.72;82.17;101888.19;4824844;29;20260;-67
2022/11/18 08:38:36;;;;;;;4.13;3.72;;;;;;;-1.72;82.41;101896.03;4824694;29;20493;-67
2022/11/18 08:41:06;;;;;;;4.03;2.87;;;;;;;-1.74;82.31;101900.44;4824439;29;20168;-75
2022/11/18 08:43:37;;;;;;;3.45;2.45;;;;;;;-1.73;81.79;101899.56;4825420;29;20053;-77
2022/11/18 08:46:12;;;;;;;5.50;2.97;;;;;;;-1.62;82.08;101902.63;4824595;29;20033;-75
2022/11/18 08:48:54;;;;;;;2.83;2.47;;;;;;;-1.64;80.63;101897.44;4825377;29;20045;-76
2022/11/18 08:51:20;;;;;;;5.70;3.53;;;;;;;-1.69;80.50;101891.53;4825242;29;20041;-74
2022/11/18 08:53:46;;;;;;;6.10;2.77;;;;;;;-1.65;81.21;101898.34;4825345;29;20042;-74
2022/11/18 08:56:21;;;;;;;6.10;2.83;;;;;;;-1.59;80.81;101902.50;4825018;29;20050;-75
2022/11/18 08:58:47;;;;;;;5.28;2.60;;;;;;;-1.66;80.34;101907.09;4825594;29;20030;-74
2022/11/18 09:01:44;;;;;;;4.53;3.47;;;;;;;-1.64;79.81;101897.44;4824470;29;20038;-79
2022/11/18 09:04:50;;;;;;;2.67;2.47;;;;;;;-1.69;80.78;101912.44;4802003;29;20050;-83
2022/11/18 09:07:17;;;;;;;4.35;2.60;;;;;;;-1.79;80.18;101882.31;4826304;29;20030;-76
2022/11/18 09:09:48;;;;;;;3.90;2.30;;;;;;;-1.57;79.86;101909.34;4824832;29;20586;-78
2022/11/18 09:12:14;;;;;;;6.93;2.88;;;;;;;-1.54;79.69;101915.38;4808665;29;20048;-78
2022/11/18 09:14:46;;;;;;;3.30;2.50;;;;;;;-1.56;79.49;101908.44;4825473;29;20112;-75
2022/11/18 09:17:13;;;;;;;4.67;2.67;;;;;;;-1.58;80.12;101905.03;4828111;29;20039;-75
2022/11/18 09:19:39;;;;;;;2.90;2.22;;;;;;;-1.56;79.68;101903.22;4800361;29;20267;-78
2022/11/18 09:22:06;;;;;;;4.43;2.50;;;;;;;-1.60;79.78;101896.41;4829608;29;20030;-78
2022/11/18 09:24:35;;;;;;;4.15;2.88;;;;;;;-1.65;80.29;101881.84;4829681;29;20055;-76
2022/11/18 09:27:09;;;;;;;2.55;2.35;;;;;;;-1.48;80.64;101899.47;4830312;29;20027;-77
2022/11/18 09:29:35;;;;;;;4.78;2.45;;;;;;;-1.51;79.89;101884.75;4829911;29;20037;-78
2022/11/18 09:32:01;;;;;;;5.63;2.60;;;;;;;-1.43;79.51;101887.09;4811975;29;20034;-76
2022/11/18 09:34:28;;;;;;;2.90;2.60;;;;;;;-1.44;79.33;101890.63;4811781;29;20046;-73
2022/11/18 09:36:55;;;;;;;3.33;2.20;;;;;;;-1.50;79.56;101875.16;4826635;29;20039;-75
2022/11/18 09:39:24;;;;;;;2.80;2.38;;;;;;;-1.66;79.28;101861.84;4826404;29;20417;-73
2022/11/18 09:46:15;;;;;;;3.88;3.03;;;;;;;-2.03;80.44;101834.47;4767367;30;20046;-76
2022/11/18 09:51:51;;;;;;;2.80;2.47;;;;;;;-2.01;81.20;101864.00;4813208;29;20098;-70
2022/11/18 09:54:19;;;;;;;4.22;2.35;;;;;;;-1.87;81.97;101902.66;4824065;29;20068;-77
2022/11/18 09:56:47;;;;;;;2.38;2.17;;;;;;;-1.84;81.51;101892.09;4811052;29;20030;-75
2022/11/18 09:59:32;;;;;;;2.45;2.25;;;;;;;-1.77;81.52;101904.00;4811800;29;20030;-76
2022/11/18 10:05:49;;;;;;;5.17;2.47;;;;;;;-1.49;81.13;101887.31;4824328;29;20590;-73
2022/11/18 10:08:27;;;;;;;6.25;2.60;;;;;;;-1.44;81.27;101891.47;4823936;29;20802;-71
2022/11/18 10:11:16;;;;;;;3.15;2.85;;;;;;;-1.39;80.57;101873.00;4823715;29;20047;-71
2022/11/18 10:13:51;;;;;;;2.83;2.33;;;;;;;-1.35;80.76;101880.66;4823281;29;20050;-72
2022/11/18 10:16:29;;;;;;;6.38;2.30;;;;;;;-1.39;80.18;101879.09;4824099;29;20038;-71
2022/11/18 10:19:31;;;;;;;5.23;2.23;;;;;;;-1.50;81.06;101875.16;4824345;29;20145;-74
2022/11/18 10:22:21;;;;;;;2.47;2.28;;;;;;;-1.57;80.95;101880.63;4793039;29;20702;-75
2022/11/18 10:24:52;;;;;;;8.00;2.55;;;;;;;-1.56;81.70;101871.03;4807399;29;20366;-72
2022/11/18 10:27:18;;;;;;;5.28;2.55;;;;;;;-1.49;80.90;101874.25;4823994;29;20038;-73
2022/11/18 10:29:51;;;;;;;2.97;2.67;;;;;;;-1.51;80.42;101863.00;4824402;29;20121;-74
2022/11/18 10:32:18;;;;;;;3.27;2.63;;;;;;;-1.44;80.97;101874.97;4824039;29;20255;-75
2022/11/18 10:34:50;;;;;;;2.22;2.03;;;;;;;-1.38;80.76;101869.47;4824395;29;20271;-73
2022/11/18 10:37:23;;;;;;;3.60;3.13;;;;;;;-1.39;80.28;101862.56;4834172;29;20034;-74
2022/11/18 10:39:53;;;;;;;4.67;3.10;;;;;;;-1.27;79.65;101860.31;4830580;29;20472;-72
2022/11/18 10:42:36;;;;;;;3.00;2.30;;;;;;;-1.19;78.82;101849.53;4825459;29;20295;-75
2022/11/18 10:45:24;;;;;;;3.17;2.47;;;;;;;-1.36;77.66;101870.28;4824652;29;20764;-73
2022/11/18 10:48:08;;;;;;;5.43;2.15;;;;;;;-1.47;78.19;101864.59;4808494;29;20259;-73
2022/11/18 10:50:41;;;;;;;11.63;2.35;;;;;;;-1.72;76.92;101836.81;4824002;29;20042;-71
2022/11/18 10:53:29;;;;;;;2.53;2.30;;;;;;;-1.80;78.05;101851.91;4823587;29;20049;-69
2022/11/18 10:56:07;;;;;;;1.50;1.40;;;;;;;-1.92;78.08;101839.31;4810923;29;20027;-73
2022/11/18 10:58:51;;;;;;;1.88;1.63;;;;;;;-1.88;78.99;101846.97;4826762;29;20550;-73
2022/11/18 11:01:23;;;;;;;4.95;1.80;;;;;;;-1.92;78.44;101841.91;4826183;29;20034;-72
2022/11/18 11:04:20;;;;;;;6.07;2.20;;;;;;;-1.84;78.99;101858.16;4825665;29;20068;-72
2022/11/18 11:06:45;;;;;;;2.15;1.95;;;;;;;-1.88;78.34;101844.34;4821637;29;20425;-73
2022/11/18 11:09:14;;;;;;;4.60;2.17;;;;;;;-1.91;78.98;101851.47;4824763;29;20029;-73
2022/11/18 11:12:12;;;;;;;7.13;1.80;;;;;;;-1.97;79.19;101849.94;4825664;29;20219;-72
2022/11/18 11:14:54;;;;;;;2.95;2.05;;;;;;;-2.06;79.66;101847.63;4826284;29;20057;-72
2022/11/18 11:17:32;;;;;;;4.18;2.67;;;;;;;-1.98;80.24;101857.81;4826208;29;20041;-72
2022/11/18 11:20:15;;;;;;;3.05;2.20;;;;;;;-1.99;80.27;101867.41;4826820;29;20467;-71
2022/11/18 11:22:42;;;;;;;3.05;1.90;;;;;;;-2.08;80.36;101836.41;4826223;29;20038;-73
2022/11/18 11:25:32;;;;;;;2.42;1.67;;;;;;;-1.91;79.64;101859.28;4826364;29;20071;-73
2022/11/18 11:28:01;;;;;;;4.18;1.90;;;;;;;-1.85;80.15;101864.28;4825997;29;20030;-74
2022/11/18 11:30:26;;;;;;;1.92;1.83;;;;;;;-1.82;79.40;101853.72;4826381;29;20030;-73
2022/11/18 11:33:19;;;;;;;3.63;2.13;;;;;;;-1.87;80.16;101855.66;4809595;29;20034;-72
2022/11/18 11:36:22;;;;;;;2.15;1.95;;;;;;;-1.88;80.64;101849.56;4825960;29;20027;-75
2022/11/18 11:39:06;;;;;;;2.40;2.20;;;;;;;-1.78;80.33;101857.91;4825615;29;20038;-74
2022/11/18 11:41:47;;;;;;;2.17;1.85;;;;;;;-1.76;79.90;101858.72;4825605;29;20038;-73
2022/11/18 11:44:34;;;;;;;6.97;2.50;;;;;;;-1.75;80.04;101844.75;4825946;29;20030;-70
2022/11/18 11:50:05;;;;;;;2.72;1.77;;;;;;;-1.62;79.99;101853.84;4826114;29;20030;-71
2022/11/18 11:52:53;;;;;;;1.90;1.80;;;;;;;-1.59;79.38;101855.47;4826109;29;20098;-71
2022/11/18 11:55:27;;;;;;;2.70;2.00;;;;;;;-1.62;79.09;101861.66;4825674;29;20034;-71
2022/11/18 11:58:15;;;;;;;2.55;2.35;;;;;;;-1.66;78.71;101861.84;4825525;29;20041;-71
2022/11/18 12:00:49;;;;;;;2.83;2.05;;;;;;;-1.77;79.54;101854.38;4825344;29;20483;-74
2022/11/18 12:03:35;;;;;;;6.25;2.33;;;;;;;-1.70;79.83;101855.03;4825309;29;20038;-71
2022/11/18 12:06:01;;;;;;;4.00;2.47;;;;;;;-1.71;80.54;101851.56;4825065;29;20038;-71
2022/11/18 12:08:30;;;;;;;4.60;2.10;;;;;;;-1.76;81.14;101863.94;4808811;29;20034;-71
2022/11/18 12:11:06;;;;;;;3.53;2.10;;;;;;;-1.81;81.47;101849.34;4824955;29;20050;-75
2022/11/18 12:14:10;;;;;;;2.40;2.17;;;;;;;-1.78;81.56;101854.44;4826255;29;20077;-75
2022/11/18 12:16:54;;;;;;;8.25;2.58;;;;;;;-1.77;82.15;101854.38;4825860;29;20383;-76